Time;durP1;ratioP1;P1;durP2;ratioP2;P2;SDS_P1;SDS_P2;PMS_P1;PMS_P2;Temp;Humidity;BMP_temperature;BMP_pressure;BME280_temperature;BME280_humidity;BME280_pressure;Samples;Min_cycle;Max_cycle;Signal;HPM_P1;HPM_P2
2022/07/11 00:00:04;;;;;;;2.10;0.77;;;;;;;;;;5013893;28;20112;-50
2022/07/11 00:02:30;;;;;;;1.10;0.50;;;;;;;;;;5011342;28;20078;-47
2022/07/11 00:04:56;;;;;;;1.92;0.98;;;;;;;;;;5014995;28;20033;-52
2022/07/11 00:07:22;;;;;;;2.05;0.70;;;;;;;;;;5019778;28;20370;-49
2022/07/11 00:09:48;;;;;;;2.50;0.63;;;;;;;;;;5018266;28;20029;-49
2022/07/11 00:12:15;;;;;;;1.08;0.50;;;;;;;;;;5007005;28;20030;-48
2022/07/11 00:14:41;;;;;;;1.10;0.55;;;;;;;;;;5009983;28;20030;-48
2022/07/11 00:17:08;;;;;;;2.53;0.57;;;;;;;;;;5009980;28;20026;-48
2022/07/11 00:19:35;;;;;;;1.38;0.50;;;;;;;;;;5021165;28;20061;-48
2022/07/11 00:22:01;;;;;;;1.30;0.60;;;;;;;;;;5011418;28;20022;-50
2022/07/11 00:24:27;;;;;;;1.13;0.63;;;;;;;;;;5013257;28;20048;-52
2022/07/11 00:26:53;;;;;;;1.80;0.50;;;;;;;;;;5010148;28;20033;-48
2022/07/11 00:29:19;;;;;;;1.20;0.50;;;;;;;;;;5008465;28;20026;-52
2022/07/11 00:31:45;;;;;;;0.98;0.60;;;;;;;;;;5015725;28;20027;-53
2022/07/11 00:34:11;;;;;;;0.77;0.55;;;;;;;;;;5021855;28;20478;-49
2022/07/11 00:36:37;;;;;;;0.65;0.50;;;;;;;;;;5016584;28;20084;-46
2022/07/11 00:39:03;;;;;;;2.15;0.93;;;;;;;;;;5014238;28;20033;-47
2022/07/11 00:41:29;;;;;;;1.05;0.50;;;;;;;;;;5018748;28;20378;-48
2022/07/11 00:43:57;;;;;;;0.98;0.50;;;;;;;;;;5014593;28;20032;-48
2022/07/11 00:46:24;;;;;;;1.10;0.80;;;;;;;;;;5006729;28;20045;-48
2022/07/11 00:48:50;;;;;;;0.65;0.60;;;;;;;;;;5015680;28;20518;-48
2022/07/11 00:51:18;;;;;;;1.48;0.63;;;;;;;;;;5018065;28;20463;-48
2022/07/11 00:53:44;;;;;;;0.50;0.40;;;;;;;;;;5015659;28;20092;-48
2022/07/11 00:56:10;;;;;;;0.63;0.57;;;;;;;;;;5024999;28;20025;-49
2022/07/11 00:58:37;;;;;;;1.23;0.68;;;;;;;;;;5022300;28;20026;-45
2022/07/11 01:01:03;;;;;;;2.15;0.68;;;;;;;;;;5019297;28;20036;-48
2022/07/11 01:03:29;;;;;;;0.95;0.55;;;;;;;;;;5015067;28;20026;-48
2022/07/11 01:05:55;;;;;;;1.38;0.73;;;;;;;;;;5011703;28;20083;-48
2022/07/11 01:08:21;;;;;;;0.93;0.50;;;;;;;;;;5015096;28;20097;-50
2022/07/11 01:10:47;;;;;;;0.63;0.60;;;;;;;;;;5013083;28;20022;-48
2022/07/11 01:13:13;;;;;;;1.45;0.60;;;;;;;;;;5014552;28;20026;-48
2022/07/11 01:15:40;;;;;;;2.33;0.70;;;;;;;;;;5015436;28;20124;-47
2022/07/11 01:18:05;;;;;;;1.75;0.50;;;;;;;;;;5013964;28;20029;-47
2022/07/11 01:20:32;;;;;;;1.00;0.47;;;;;;;;;;5018331;28;20029;-48
2022/07/11 01:23:06;;;;;;;0.98;0.60;;;;;;;;;;5010833;28;20300;-48
2022/07/11 01:25:32;;;;;;;1.13;0.60;;;;;;;;;;5011817;28;20060;-47
2022/07/11 01:27:59;;;;;;;0.50;0.50;;;;;;;;;;5016056;28;20497;-48
2022/07/11 01:30:26;;;;;;;0.95;0.60;;;;;;;;;;5021546;28;20021;-49
2022/07/11 01:32:52;;;;;;;1.38;0.80;;;;;;;;;;5012586;28;20026;-48
2022/07/11 01:35:18;;;;;;;1.48;0.60;;;;;;;;;;5025464;28;20029;-50
2022/07/11 01:37:44;;;;;;;2.33;0.95;;;;;;;;;;5013011;28;20120;-50
2022/07/11 01:40:11;;;;;;;0.80;0.57;;;;;;;;;;5009317;28;20038;-50
2022/07/11 01:42:37;;;;;;;0.75;0.60;;;;;;;;;;5015061;28;20161;-49
2022/07/11 01:45:03;;;;;;;0.65;0.60;;;;;;;;;;5015002;28;20057;-53
2022/07/11 01:47:29;;;;;;;1.10;0.75;;;;;;;;;;5019549;28;20402;-51
2022/07/11 01:49:55;;;;;;;1.80;0.57;;;;;;;;;;5017504;28;20026;-53
2022/07/11 01:52:22;;;;;;;1.00;0.77;;;;;;;;;;5016390;28;20033;-52
2022/07/11 01:54:48;;;;;;;1.83;0.90;;;;;;;;;;5011843;28;20099;-51
2022/07/11 01:57:14;;;;;;;0.77;0.60;;;;;;;;;;5012623;28;20075;-50
2022/07/11 01:59:40;;;;;;;1.63;1.15;;;;;;;;;;5013567;28;20540;-49
2022/07/11 02:02:06;;;;;;;1.00;0.90;;;;;;;;;;4995990;28;20493;-49
2022/07/11 02:04:32;;;;;;;0.95;0.70;;;;;;;;;;5014526;28;20042;-54
2022/07/11 02:06:59;;;;;;;1.48;0.82;;;;;;;;;;5014166;28;20029;-49
2022/07/11 02:09:25;;;;;;;1.63;0.82;;;;;;;;;;5008895;28;20052;-50
2022/07/11 02:11:51;;;;;;;2.38;0.75;;;;;;;;;;5017073;28;20054;-49
2022/07/11 02:14:16;;;;;;;1.00;0.90;;;;;;;;;;5010407;28;20026;-51
2022/07/11 02:16:42;;;;;;;0.75;0.60;;;;;;;;;;5007774;28;20030;-46
2022/07/11 02:19:10;;;;;;;1.45;1.00;;;;;;;;;;5016005;28;20043;-50
2022/07/11 02:21:36;;;;;;;2.08;0.95;;;;;;;;;;5020843;28;20030;-50
2022/07/11 02:24:03;;;;;;;1.55;0.80;;;;;;;;;;5014826;28;20286;-48
2022/07/11 02:26:29;;;;;;;1.88;1.25;;;;;;;;;;5014872;28;20085;-50
2022/07/11 02:28:55;;;;;;;0.77;0.60;;;;;;;;;;5014992;28;20026;-48
2022/07/11 02:31:21;;;;;;;0.95;0.65;;;;;;;;;;5019832;28;20536;-49
2022/07/11 02:33:47;;;;;;;1.42;0.80;;;;;;;;;;5019019;28;20112;-49
2022/07/11 02:36:13;;;;;;;1.02;0.70;;;;;;;;;;5015425;28;20026;-49
2022/07/11 02:38:39;;;;;;;1.55;0.90;;;;;;;;;;5020074;28;20029;-49
2022/07/11 02:41:05;;;;;;;1.30;0.90;;;;;;;;;;5017296;28;20038;-47
2022/07/11 02:43:31;;;;;;;1.67;1.00;;;;;;;;;;5017001;28;20029;-49
2022/07/11 02:45:57;;;;;;;2.20;0.80;;;;;;;;;;5018308;28;20054;-49
2022/07/11 02:48:23;;;;;;;1.00;0.90;;;;;;;;;;5010273;28;20030;-48
2022/07/11 02:50:49;;;;;;;1.02;0.70;;;;;;;;;;5013757;28;20018;-48
2022/07/11 02:53:15;;;;;;;0.65;0.60;;;;;;;;;;5013000;28;20046;-48
2022/07/11 02:55:41;;;;;;;0.80;0.80;;;;;;;;;;5016909;28;20444;-48
2022/07/11 02:58:07;;;;;;;0.77;0.70;;;;;;;;;;5010802;28;20030;-48
2022/07/11 03:00:33;;;;;;;1.13;0.75;;;;;;;;;;5013306;28;20057;-48
2022/07/11 03:02:59;;;;;;;1.65;1.10;;;;;;;;;;5014151;28;20112;-48
2022/07/11 03:05:25;;;;;;;1.17;0.80;;;;;;;;;;5016335;28;20581;-48
2022/07/11 03:07:51;;;;;;;0.90;0.60;;;;;;;;;;5016002;28;20028;-50
2022/07/11 03:10:17;;;;;;;1.63;0.70;;;;;;;;;;5012877;28;20022;-49
2022/07/11 03:12:45;;;;;;;0.77;0.73;;;;;;;;;;5016913;28;20465;-47
2022/07/11 03:15:11;;;;;;;1.77;0.90;;;;;;;;;;5012261;28;20064;-51
2022/07/11 03:17:37;;;;;;;0.63;0.60;;;;;;;;;;5015905;28;20037;-50
2022/07/11 03:20:04;;;;;;;1.23;0.70;;;;;;;;;;5015209;28;20028;-54
2022/07/11 03:22:30;;;;;;;1.52;0.95;;;;;;;;;;5011383;28;20475;-49
2022/07/11 03:24:56;;;;;;;1.85;0.70;;;;;;;;;;5005854;28;20052;-53
2022/07/11 03:27:22;;;;;;;2.25;0.73;;;;;;;;;;5007314;28;20067;-51
2022/07/11 03:29:48;;;;;;;2.45;0.90;;;;;;;;;;5013393;28;20020;-51
2022/07/11 03:32:15;;;;;;;0.68;0.68;;;;;;;;;;5012245;28;20109;-48
2022/07/11 03:35:40;;;;;;;0.65;0.65;;;;;;;;;;5011217;28;20103;-50
2022/07/11 03:37:27;;;;;;;6.53;1.40;;;;;;;;;;5008643;28;20191;-49
2022/07/11 03:39:53;;;;;;;2.00;0.88;;;;;;;;;;5010203;28;20485;-48
2022/07/11 03:42:19;;;;;;;1.02;0.70;;;;;;;;;;5021508;28;20022;-52
2022/07/11 03:44:45;;;;;;;1.30;0.80;;;;;;;;;;5017000;28;20067;-47
2022/07/11 03:47:10;;;;;;;1.17;1.05;;;;;;;;;;5008040;28;20022;-49
2022/07/11 03:49:36;;;;;;;1.40;0.82;;;;;;;;;;5011293;28;20478;-51
2022/07/11 03:52:02;;;;;;;1.08;0.90;;;;;;;;;;5012552;28;20018;-51
2022/07/11 03:54:28;;;;;;;1.23;0.90;;;;;;;;;;5013984;28;20379;-50
2022/07/11 03:56:54;;;;;;;1.23;0.80;;;;;;;;;;5011324;28;20044;-50
2022/07/11 03:59:20;;;;;;;1.10;0.90;;;;;;;;;;5011826;28;20409;-51
2022/07/11 04:01:46;;;;;;;0.88;0.77;;;;;;;;;;5010490;28;20018;-46
2022/07/11 04:04:12;;;;;;;1.20;0.98;;;;;;;;;;5012506;28;20054;-48
2022/07/11 04:06:38;;;;;;;1.00;0.90;;;;;;;;;;5011528;28;20080;-51
2022/07/11 04:09:04;;;;;;;1.65;0.95;;;;;;;;;;5014200;28;20034;-48
2022/07/11 04:11:30;;;;;;;1.15;0.82;;;;;;;;;;5009251;28;20084;-49
2022/07/11 04:13:56;;;;;;;2.40;0.90;;;;;;;;;;5010213;28;20084;-49
2022/07/11 04:16:22;;;;;;;0.98;0.82;;;;;;;;;;5014836;28;20022;-50
2022/07/11 04:18:48;;;;;;;1.77;0.95;;;;;;;;;;5015035;28;20382;-45
2022/07/11 04:21:15;;;;;;;1.60;0.82;;;;;;;;;;5011331;28;20026;-48
2022/07/11 04:23:41;;;;;;;1.63;0.90;;;;;;;;;;5017580;28;20026;-50
2022/07/11 04:26:07;;;;;;;1.98;0.85;;;;;;;;;;5013698;28;20038;-50
2022/07/11 04:28:33;;;;;;;5.13;0.85;;;;;;;;;;5014510;28;20013;-53
2022/07/11 04:30:59;;;;;;;2.22;1.00;;;;;;;;;;5016490;28;20079;-48
2022/07/11 04:33:25;;;;;;;1.15;0.88;;;;;;;;;;5016406;28;20030;-48
2022/07/11 04:35:51;;;;;;;1.65;1.08;;;;;;;;;;5020859;28;20036;-47
2022/07/11 04:38:21;;;;;;;2.13;0.90;;;;;;;;;;5010848;28;20017;-49
2022/07/11 04:40:47;;;;;;;1.70;1.00;;;;;;;;;;5015473;28;20025;-48
2022/07/11 04:43:13;;;;;;;2.30;0.85;;;;;;;;;;5008203;28;21301;-49
2022/07/11 04:45:39;;;;;;;0.82;0.70;;;;;;;;;;5009274;28;20034;-48
2022/07/11 04:48:05;;;;;;;1.92;1.17;;;;;;;;;;5015760;28;20383;-50
2022/07/11 04:50:31;;;;;;;1.00;0.90;;;;;;;;;;5020313;28;20022;-49
2022/07/11 04:52:57;;;;;;;1.45;0.90;;;;;;;;;;5010312;28;20140;-49
2022/07/11 04:55:23;;;;;;;2.85;0.98;;;;;;;;;;5011454;28;20034;-49
2022/07/11 04:57:49;;;;;;;3.42;1.20;;;;;;;;;;5010384;28;20018;-47
2022/07/11 05:00:15;;;;;;;1.10;1.00;;;;;;;;;;5008148;28;20049;-49
2022/07/11 05:02:41;;;;;;;1.75;1.05;;;;;;;;;;5011935;28;20029;-48
2022/07/11 05:05:08;;;;;;;2.03;1.00;;;;;;;;;;5012389;28;20686;-48
2022/07/11 05:07:34;;;;;;;2.22;0.98;;;;;;;;;;5016789;28;20037;-50
2022/07/11 05:10:00;;;;;;;2.72;1.63;;;;;;;;;;5014670;28;20033;-49
2022/07/11 05:12:26;;;;;;;1.15;0.90;;;;;;;;;;5013513;28;20054;-48
2022/07/11 05:14:52;;;;;;;2.03;1.30;;;;;;;;;;5010840;28;20077;-46
2022/07/11 05:17:18;;;;;;;1.58;1.00;;;;;;;;;;5008386;28;20018;-49
2022/07/11 05:19:44;;;;;;;6.60;1.80;;;;;;;;;;5012474;28;20030;-48
2022/07/11 05:22:10;;;;;;;3.05;1.20;;;;;;;;;;5013179;28;20076;-48
2022/07/11 05:24:36;;;;;;;2.58;1.40;;;;;;;;;;5013809;28;20084;-48
2022/07/11 05:27:03;;;;;;;1.50;1.13;;;;;;;;;;5011956;28;20378;-48
2022/07/11 05:29:29;;;;;;;1.95;1.02;;;;;;;;;;5013484;28;20483;-48
2022/07/11 05:31:55;;;;;;;2.00;1.30;;;;;;;;;;5009497;28;20494;-48
2022/07/11 05:34:21;;;;;;;1.17;0.90;;;;;;;;;;5012081;28;20026;-50
2022/07/11 05:36:47;;;;;;;2.13;1.20;;;;;;;;;;5008030;28;20025;-49
2022/07/11 05:39:13;;;;;;;1.40;0.95;;;;;;;;;;5012706;28;20045;-53
2022/07/11 05:41:39;;;;;;;2.15;1.40;;;;;;;;;;5013596;28;20369;-50
2022/07/11 05:44:05;;;;;;;2.15;1.30;;;;;;;;;;5019742;28;20029;-54
2022/07/11 05:46:31;;;;;;;2.65;1.00;;;;;;;;;;5014418;28;20037;-52
2022/07/11 05:48:57;;;;;;;4.70;0.90;;;;;;;;;;5014704;28;20483;-48
2022/07/11 05:51:23;;;;;;;4.03;1.55;;;;;;;;;;5017214;28;20033;-47
2022/07/11 05:53:49;;;;;;;3.35;1.70;;;;;;;;;;5012192;28;20049;-48
2022/07/11 05:56:15;;;;;;;3.42;1.65;;;;;;;;;;5022327;28;20116;-51
2022/07/11 05:58:41;;;;;;;4.35;1.98;;;;;;;;;;5018014;28;20459;-50
2022/07/11 06:01:08;;;;;;;3.30;1.60;;;;;;;;;;5010712;28;20022;-51
2022/07/11 06:03:35;;;;;;;4.05;1.25;;;;;;;;;;5015929;28;20029;-49
2022/07/11 06:06:04;;;;;;;2.63;1.55;;;;;;;;;;5023419;28;20047;-55
2022/07/11 06:08:42;;;;;;;4.07;1.30;;;;;;;;;;5000178;28;20033;-60
2022/07/11 06:11:11;;;;;;;2.67;1.40;;;;;;;;;;5010308;28;20030;-54
2022/07/11 06:13:38;;;;;;;3.47;1.25;;;;;;;;;;5012837;28;20429;-53
2022/07/11 06:16:05;;;;;;;2.72;1.20;;;;;;;;;;5018316;28;20496;-49
2022/07/11 06:18:31;;;;;;;3.58;1.40;;;;;;;;;;5015392;28;20026;-50
2022/07/11 06:20:57;;;;;;;2.30;1.30;;;;;;;;;;5014398;28;20025;-53
2022/07/11 06:23:23;;;;;;;3.47;1.40;;;;;;;;;;5013805;28;20393;-50
2022/07/11 06:25:50;;;;;;;1.92;1.10;;;;;;;;;;5010853;28;20034;-49
2022/07/11 06:28:16;;;;;;;4.40;1.42;;;;;;;;;;5011209;28;20100;-51
2022/07/11 06:30:42;;;;;;;9.98;2.65;;;;;;;;;;5013025;28;20018;-54
2022/07/11 06:33:08;;;;;;;3.33;1.30;;;;;;;;;;5008059;28;20080;-49
2022/07/11 06:35:34;;;;;;;2.03;1.27;;;;;;;;;;5007739;28;20038;-48
2022/07/11 06:38:00;;;;;;;4.50;1.55;;;;;;;;;;5011100;28;20483;-50
2022/07/11 06:40:27;;;;;;;5.70;1.60;;;;;;;;;;5008078;28;20033;-48
2022/07/11 06:42:53;;;;;;;3.65;1.83;;;;;;;;;;5017471;28;20034;-49
2022/07/11 06:45:19;;;;;;;2.72;1.95;;;;;;;;;;5010608;28;20435;-47
2022/07/11 06:47:45;;;;;;;2.13;1.50;;;;;;;;;;5006650;28;20042;-51
2022/07/11 06:50:11;;;;;;;1.67;1.40;;;;;;;;;;5016116;28;20030;-50
2022/07/11 06:52:37;;;;;;;2.10;1.30;;;;;;;;;;5018479;28;20017;-50
2022/07/11 06:55:04;;;;;;;3.47;1.23;;;;;;;;;;5010990;28;20045;-51
2022/07/11 06:57:30;;;;;;;4.72;1.60;;;;;;;;;;5010404;28;20112;-51
2022/07/11 06:59:56;;;;;;;2.90;1.10;;;;;;;;;;5010945;28;20104;-50
2022/07/11 07:02:26;;;;;;;3.88;1.67;;;;;;;;;;5010601;28;20021;-49
2022/07/11 07:04:52;;;;;;;1.75;1.20;;;;;;;;;;5010782;28;20029;-48
2022/07/11 07:07:18;;;;;;;4.25;1.60;;;;;;;;;;5009820;28;20030;-53
2022/07/11 07:09:44;;;;;;;2.47;1.30;;;;;;;;;;5007171;28;20088;-50
2022/07/11 07:12:10;;;;;;;2.03;1.02;;;;;;;;;;5010513;28;20040;-50
2022/07/11 07:14:36;;;;;;;2.40;1.35;;;;;;;;;;5011048;28;20045;-50
2022/07/11 07:17:02;;;;;;;1.58;1.30;;;;;;;;;;5007266;28;20053;-55
2022/07/11 07:19:28;;;;;;;1.95;1.35;;;;;;;;;;5009743;28;21433;-51
2022/07/11 07:21:54;;;;;;;2.38;1.17;;;;;;;;;;5008870;28;20113;-51
2022/07/11 07:24:21;;;;;;;2.85;1.20;;;;;;;;;;5013889;28;20026;-50
2022/07/11 07:26:47;;;;;;;4.65;1.88;;;;;;;;;;5009746;28;20479;-51
2022/07/11 07:29:13;;;;;;;2.22;1.25;;;;;;;;;;5009276;28;20113;-51
2022/07/11 07:31:39;;;;;;;1.80;1.08;;;;;;;;;;5009191;28;20149;-51
2022/07/11 07:34:05;;;;;;;3.40;1.52;;;;;;;;;;5010373;28;20030;-52
2022/07/11 07:36:31;;;;;;;2.97;1.10;;;;;;;;;;5010043;28;20029;-53
2022/07/11 07:38:57;;;;;;;2.97;1.30;;;;;;;;;;5004283;28;20042;-49
2022/07/11 07:41:23;;;;;;;2.60;1.00;;;;;;;;;;5007111;28;20041;-50
2022/07/11 07:43:51;;;;;;;2.30;1.48;;;;;;;;;;5010906;28;20022;-49
2022/07/11 07:46:17;;;;;;;2.28;1.10;;;;;;;;;;5009574;28;20116;-52
2022/07/11 07:48:43;;;;;;;2.40;1.08;;;;;;;;;;5009965;28;20038;-50
2022/07/11 07:51:09;;;;;;;2.25;0.98;;;;;;;;;;5010078;28;20022;-51
2022/07/11 07:53:35;;;;;;;2.97;1.00;;;;;;;;;;5010788;28;20077;-51
2022/07/11 07:56:02;;;;;;;1.83;1.05;;;;;;;;;;5010522;28;20482;-50
2022/07/11 07:58:28;;;;;;;4.80;1.30;;;;;;;;;;5009333;28;20475;-52
2022/07/11 08:03:38;;;;;;;2.80;0.93;;;;;;;;;;5009524;28;20033;-50
2022/07/11 08:06:04;;;;;;;1.38;0.93;;;;;;;;;;5010663;28;20041;-50
2022/07/11 08:08:30;;;;;;;2.50;1.00;;;;;;;;;;5010476;28;20073;-51
2022/07/11 08:11:00;;;;;;;1.50;1.00;;;;;;;;;;5009199;28;20487;-48
2022/07/11 08:13:27;;;;;;;3.35;1.42;;;;;;;;;;5009686;28;20384;-53
2022/07/11 08:15:53;;;;;;;2.65;1.27;;;;;;;;;;5011175;28;20034;-52
2022/07/11 08:18:19;;;;;;;2.75;0.90;;;;;;;;;;5010652;28;20026;-49
2022/07/11 08:20:45;;;;;;;1.48;0.85;;;;;;;;;;5006655;28;20497;-52
2022/07/11 08:23:12;;;;;;;1.67;0.80;;;;;;;;;;5008459;28;20026;-50
2022/07/11 08:25:38;;;;;;;1.80;0.80;;;;;;;;;;5009981;28;20038;-48
2022/07/11 08:28:04;;;;;;;1.88;0.93;;;;;;;;;;5009965;28;20429;-46
2022/07/11 08:30:30;;;;;;;3.15;0.80;;;;;;;;;;5005429;28;20533;-49
2022/07/11 08:32:56;;;;;;;2.45;0.90;;;;;;;;;;5009366;28;20034;-46
2022/07/11 08:35:22;;;;;;;1.73;1.00;;;;;;;;;;5010889;28;20034;-49
2022/07/11 08:37:48;;;;;;;1.20;0.98;;;;;;;;;;5001614;28;20025;-49
2022/07/11 08:40:14;;;;;;;1.42;0.80;;;;;;;;;;5010589;28;20022;-48
2022/07/11 08:42:44;;;;;;;3.50;0.82;;;;;;;;;;5010584;28;20033;-50
2022/07/11 08:45:13;;;;;;;0.85;0.70;;;;;;;;;;5008725;28;20037;-50
2022/07/11 08:47:40;;;;;;;3.35;0.90;;;;;;;;;;5010730;28;20109;-49
2022/07/11 08:50:06;;;;;;;1.83;0.85;;;;;;;;;;5009250;28;20029;-47
2022/07/11 08:52:33;;;;;;;1.55;0.80;;;;;;;;;;5011794;28;20152;-50
2022/07/11 08:54:59;;;;;;;1.75;0.80;;;;;;;;;;5023373;28;20081;-47
2022/07/11 08:57:25;;;;;;;2.50;0.70;;;;;;;;;;5015798;28;20049;-49
2022/07/11 08:59:55;;;;;;;1.20;0.70;;;;;;;;;;5014600;28;20463;-52
2022/07/11 09:02:21;;;;;;;1.80;0.88;;;;;;;;;;5018062;28;20022;-50
2022/07/11 09:04:47;;;;;;;1.20;0.70;;;;;;;;;;5021614;28;20025;-52
2022/07/11 09:07:13;;;;;;;1.52;0.70;;;;;;;;;;5023230;28;20033;-47
2022/07/11 09:09:39;;;;;;;0.80;0.73;;;;;;;;;;5015967;28;20438;-49
2022/07/11 09:12:11;;;;;;;1.70;1.00;;;;;;;;;;5013543;28;20026;-48
2022/07/11 09:14:37;;;;;;;1.92;1.05;;;;;;;;;;5022317;28;20024;-50
2022/07/11 09:17:04;;;;;;;2.58;1.15;;;;;;;;;;5014545;28;20026;-49
2022/07/11 09:19:31;;;;;;;1.95;0.82;;;;;;;;;;5014107;28;20052;-52
2022/07/11 09:27:44;;;;;;;0.82;0.68;;;;;;;;;;5015845;28;20044;-49
2022/07/11 09:30:17;;;;;;;0.70;0.70;;;;;;;;;;5024006;28;20030;-51
2022/07/11 09:32:53;;;;;;;3.30;0.80;;;;;;;;;;5021732;28;20032;-53
2022/07/11 09:35:20;;;;;;;0.93;0.80;;;;;;;;;;5010661;28;20021;-52
2022/07/11 09:37:46;;;;;;;0.95;0.80;;;;;;;;;;5017788;28;20502;-49
2022/07/11 09:40:13;;;;;;;1.15;0.73;;;;;;;;;;5019419;28;20473;-50
2022/07/11 09:42:50;;;;;;;2.00;0.90;;;;;;;;;;5023266;28;20018;-52
2022/07/11 09:45:16;;;;;;;1.35;0.80;;;;;;;;;;5014879;28;20049;-49
2022/07/11 09:47:46;;;;;;;1.00;0.70;;;;;;;;;;5003358;28;20425;-51
2022/07/11 09:50:15;;;;;;;1.95;0.90;;;;;;;;;;5016157;28;20044;-52
2022/07/11 09:52:43;;;;;;;1.90;0.80;;;;;;;;;;5012639;28;20026;-49
2022/07/11 09:55:09;;;;;;;1.92;0.90;;;;;;;;;;5012347;28;20125;-52
2022/07/11 09:57:37;;;;;;;1.02;0.73;;;;;;;;;;5011898;28;20123;-51
2022/07/11 10:00:03;;;;;;;1.40;0.80;;;;;;;;;;5014708;28;20026;-51
2022/07/11 10:02:29;;;;;;;2.60;0.85;;;;;;;;;;5012926;28;20101;-52
2022/07/11 10:04:56;;;;;;;1.58;0.80;;;;;;;;;;5010794;28;20108;-51
2022/07/11 10:07:22;;;;;;;1.23;0.52;;;;;;;;;;5011455;28;20149;-53
2022/07/11 10:09:48;;;;;;;2.35;0.70;;;;;;;;;;5012336;28;20506;-52
2022/07/11 10:12:14;;;;;;;4.00;0.88;;;;;;;;;;5011902;28;20041;-54
2022/07/11 10:14:40;;;;;;;1.80;0.50;;;;;;;;;;5012133;28;20025;-54
2022/07/11 10:17:10;;;;;;;0.88;0.63;;;;;;;;;;5013576;28;20054;-52
2022/07/11 10:19:39;;;;;;;1.02;0.70;;;;;;;;;;5012165;28;20057;-51
2022/07/11 10:22:26;;;;;;;1.00;0.70;;;;;;;;;;5005328;28;20112;-53
2022/07/11 10:25:10;;;;;;;2.03;1.00;;;;;;;;;;5011093;28;20038;-51
2022/07/11 10:27:55;;;;;;;1.05;0.60;;;;;;;;;;5010791;28;20034;-51
2022/07/11 10:30:40;;;;;;;1.15;0.63;;;;;;;;;;5009868;28;20061;-52
2022/07/11 10:33:06;;;;;;;0.73;0.73;;;;;;;;;;5008712;28;20101;-50
2022/07/11 10:35:32;;;;;;;1.38;0.60;;;;;;;;;;5012284;28;20088;-53
2022/07/11 10:37:58;;;;;;;0.93;0.80;;;;;;;;;;5011813;28;20438;-46
2022/07/11 10:40:43;;;;;;;2.40;0.73;;;;;;;;;;5013716;28;20030;-51
2022/07/11 10:43:09;;;;;;;0.47;0.47;;;;;;;;;;5017732;28;20379;-53
2022/07/11 10:45:56;;;;;;;1.95;0.77;;;;;;;;;;5004546;28;20034;-50
2022/07/11 10:48:22;;;;;;;0.68;0.57;;;;;;;;;;5013541;28;20149;-52
2022/07/11 10:50:53;;;;;;;1.83;0.70;;;;;;;;;;5011932;28;20076;-50
2022/07/11 10:53:22;;;;;;;1.40;0.65;;;;;;;;;;5009886;28;20129;-52
2022/07/11 10:55:51;;;;;;;1.50;0.40;;;;;;;;;;5011131;28;20024;-50
2022/07/11 10:58:17;;;;;;;2.08;0.60;;;;;;;;;;5013878;28;20373;-50
2022/07/11 11:00:43;;;;;;;1.77;0.70;;;;;;;;;;5012108;28;20080;-50
2022/07/11 11:03:11;;;;;;;1.23;0.70;;;;;;;;;;5011258;28;20108;-50
2022/07/11 11:05:50;;;;;;;3.33;0.70;;;;;;;;;;5009761;28;20034;-50
2022/07/11 11:08:35;;;;;;;1.85;0.95;;;;;;;;;;5006819;28;20026;-53
2022/07/11 11:11:05;;;;;;;1.90;0.60;;;;;;;;;;5010162;28;20065;-46
2022/07/11 11:13:31;;;;;;;1.80;0.63;;;;;;;;;;5013238;28;20025;-48
2022/07/11 11:15:58;;;;;;;1.63;0.60;;;;;;;;;;5010679;28;20451;-52
2022/07/11 11:18:24;;;;;;;1.42;0.60;;;;;;;;;;5015856;28;20080;-46
2022/07/11 11:20:59;;;;;;;0.88;0.60;;;;;;;;;;5008180;28;20029;-49
2022/07/11 11:23:26;;;;;;;1.33;0.68;;;;;;;;;;5011541;28;20479;-47
2022/07/11 11:25:52;;;;;;;1.90;0.70;;;;;;;;;;5011111;28;20096;-48
2022/07/11 11:28:22;;;;;;;1.10;0.70;;;;;;;;;;5010652;28;20085;-46
2022/07/11 11:30:54;;;;;;;1.52;0.82;;;;;;;;;;5009175;28;20386;-47
2022/07/11 11:33:20;;;;;;;0.80;0.60;;;;;;;;;;5009132;28;20627;-47
2022/07/11 11:35:58;;;;;;;1.67;0.80;;;;;;;;;;5008224;28;20097;-47
2022/07/11 11:38:24;;;;;;;1.88;0.75;;;;;;;;;;5000807;28;20088;-49
2022/07/11 11:40:50;;;;;;;4.07;1.65;;;;;;;;;;5002516;28;20029;-46
2022/07/11 11:43:20;;;;;;;2.83;1.17;;;;;;;;;;5009269;28;20493;-46
2022/07/11 11:45:53;;;;;;;1.10;0.70;;;;;;;;;;5014330;28;20866;-51
2022/07/11 11:48:31;;;;;;;0.68;0.68;;;;;;;;;;5011461;28;20104;-50
2022/07/11 11:51:18;;;;;;;2.30;1.17;;;;;;;;;;5011304;28;20029;-48
2022/07/11 11:53:54;;;;;;;1.08;0.60;;;;;;;;;;5011292;28;20487;-46
2022/07/11 11:56:21;;;;;;;0.63;0.60;;;;;;;;;;4997365;28;20391;-46
2022/07/11 11:58:47;;;;;;;0.57;0.57;;;;;;;;;;5013887;28;20076;-47
2022/07/11 12:01:14;;;;;;;0.50;0.47;;;;;;;;;;5015401;28;20113;-50
2022/07/11 12:03:47;;;;;;;1.02;0.75;;;;;;;;;;5010968;28;20076;-47
2022/07/11 12:06:13;;;;;;;1.17;0.70;;;;;;;;;;5010481;28;20088;-46
2022/07/11 12:08:39;;;;;;;0.70;0.65;;;;;;;;;;5010384;28;20084;-48
2022/07/11 12:11:06;;;;;;;2.25;0.60;;;;;;;;;;5016209;28;20426;-48
2022/07/11 12:13:31;;;;;;;0.68;0.55;;;;;;;;;;5012287;28;20057;-49
2022/07/11 12:16:43;;;;;;;0.60;0.60;;;;;;;;;;5010555;28;20509;-48
2022/07/11 12:18:44;;;;;;;1.10;0.93;;;;;;;;;;4998072;28;20068;-47
2022/07/11 12:21:13;;;;;;;0.95;0.70;;;;;;;;;;5008857;28;20129;-49
2022/07/11 12:23:39;;;;;;;0.70;0.60;;;;;;;;;;5007130;28;20128;-48
2022/07/11 12:26:06;;;;;;;0.80;0.60;;;;;;;;;;5006907;28;20594;-44
2022/07/11 12:28:35;;;;;;;1.65;0.80;;;;;;;;;;5014747;28;20029;-50
2022/07/11 12:31:01;;;;;;;1.27;0.68;;;;;;;;;;5014029;28;20025;-50
2022/07/11 12:33:28;;;;;;;1.23;0.70;;;;;;;;;;5016621;28;20033;-49
2022/07/11 12:35:58;;;;;;;1.08;0.60;;;;;;;;;;5015094;28;20088;-49
2022/07/11 12:38:24;;;;;;;1.08;0.73;;;;;;;;;;5014365;28;20036;-48
2022/07/11 12:41:03;;;;;;;0.73;0.73;;;;;;;;;;5014291;28;20033;-47
2022/07/11 12:46:24;;;;;;;0.68;0.63;;;;;;;;;;5013339;28;20115;-46
2022/07/11 12:48:51;;;;;;;0.75;0.52;;;;;;;;;;5012580;28;20053;-47
2022/07/11 12:51:26;;;;;;;0.70;0.70;;;;;;;;;;5013281;28;20022;-48
2022/07/11 12:53:58;;;;;;;1.35;0.70;;;;;;;;;;5016830;28;20475;-46
2022/07/11 12:56:24;;;;;;;1.70;0.93;;;;;;;;;;5008081;28;20049;-52
2022/07/11 12:58:50;;;;;;;1.52;0.93;;;;;;;;;;5012787;28;20467;-50
2022/07/11 13:01:16;;;;;;;1.25;0.75;;;;;;;;;;5011430;28;20042;-47
2022/07/11 13:03:42;;;;;;;1.27;0.95;;;;;;;;;;5010636;28;20104;-46
2022/07/11 13:06:08;;;;;;;1.15;0.85;;;;;;;;;;5012039;28;20113;-47
2022/07/11 13:08:42;;;;;;;0.98;0.80;;;;;;;;;;5014597;28;20494;-47
2022/07/11 13:11:08;;;;;;;1.10;0.68;;;;;;;;;;5011403;28;20033;-47
2022/07/11 13:13:34;;;;;;;0.85;0.73;;;;;;;;;;5012380;28;20097;-49
2022/07/11 13:16:00;;;;;;;2.78;0.90;;;;;;;;;;5012153;28;20121;-48
2022/07/11 13:18:26;;;;;;;0.80;0.80;;;;;;;;;;5012437;28;20105;-50
2022/07/11 13:20:54;;;;;;;1.00;0.70;;;;;;;;;;5010534;28;20482;-48
2022/07/11 13:23:20;;;;;;;1.80;1.40;;;;;;;;;;5013241;28;20478;-48
2022/07/11 13:25:46;;;;;;;2.13;0.77;;;;;;;;;;5012793;28;20041;-49
2022/07/11 13:28:12;;;;;;;2.28;0.90;;;;;;;;;;5012034;28;20414;-47
2022/07/11 13:30:39;;;;;;;3.15;1.00;;;;;;;;;;5016266;28;20037;-51
2022/07/11 13:33:05;;;;;;;1.10;0.88;;;;;;;;;;5012854;28;20026;-44
2022/07/11 13:35:31;;;;;;;1.90;0.80;;;;;;;;;;5018190;28;20080;-50
2022/07/11 13:37:56;;;;;;;1.77;0.80;;;;;;;;;;5021396;28;20415;-47
2022/07/11 13:40:24;;;;;;;1.50;0.93;;;;;;;;;;5011764;28;20037;-51
2022/07/11 13:42:52;;;;;;;1.23;0.70;;;;;;;;;;5013954;28;20109;-49
2022/07/11 13:45:18;;;;;;;1.00;0.90;;;;;;;;;;5005607;28;20113;-50
2022/07/11 13:47:45;;;;;;;1.98;0.93;;;;;;;;;;5017163;28;20026;-50
2022/07/11 13:50:11;;;;;;;1.30;0.88;;;;;;;;;;5013142;28;20097;-50
2022/07/11 13:52:37;;;;;;;1.02;0.90;;;;;;;;;;5012312;28;20467;-52
2022/07/11 13:55:04;;;;;;;1.33;0.90;;;;;;;;;;5014238;28;20052;-54
2022/07/11 13:57:30;;;;;;;1.27;0.80;;;;;;;;;;5013131;28;20053;-59
2022/07/11 13:59:56;;;;;;;3.50;1.30;;;;;;;;;;5010699;28;20053;-60
2022/07/11 14:02:22;;;;;;;3.17;1.08;;;;;;;;;;5012448;28;20487;-58
2022/07/11 14:04:48;;;;;;;2.75;1.42;;;;;;;;;;5012393;28;20029;-59
2022/07/11 14:07:14;;;;;;;1.50;1.00;;;;;;;;;;4993291;28;20030;-58
2022/07/11 14:09:41;;;;;;;2.67;1.30;;;;;;;;;;5020024;28;20022;-59
2022/07/11 14:12:07;;;;;;;1.98;1.15;;;;;;;;;;5015401;28;20034;-53
2022/07/11 14:14:34;;;;;;;1.67;1.17;;;;;;;;;;5012514;28;20022;-57
2022/07/11 14:17:00;;;;;;;1.52;1.00;;;;;;;;;;5022136;28;20029;-58
2022/07/11 14:19:26;;;;;;;2.20;1.10;;;;;;;;;;5013902;28;20022;-58
2022/07/11 14:21:53;;;;;;;3.83;1.10;;;;;;;;;;5018501;28;20509;-58
2022/07/11 14:24:19;;;;;;;5.57;1.20;;;;;;;;;;5010481;28;20097;-57
2022/07/11 14:26:45;;;;;;;3.53;1.20;;;;;;;;;;5019715;28;20041;-58
2022/07/11 14:29:12;;;;;;;4.78;1.48;;;;;;;;;;5020823;28;20081;-58
2022/07/11 14:31:38;;;;;;;1.63;1.10;;;;;;;;;;5016638;28;20032;-58
2022/07/11 14:34:04;;;;;;;2.33;1.30;;;;;;;;;;5012922;28;20081;-58
2022/07/11 14:36:30;;;;;;;3.47;1.30;;;;;;;;;;5015875;28;20029;-58
2022/07/11 14:38:56;;;;;;;2.65;1.20;;;;;;;;;;5006130;28;20080;-57
2022/07/11 14:41:22;;;;;;;2.65;1.30;;;;;;;;;;5011124;28;20545;-58
2022/07/11 14:43:49;;;;;;;1.85;1.30;;;;;;;;;;5016309;28;20027;-58
2022/07/11 14:46:18;;;;;;;1.30;1.10;;;;;;;;;;5001251;28;20029;-57
2022/07/11 14:48:46;;;;;;;2.35;1.20;;;;;;;;;;5018835;28;20026;-58
2022/07/11 14:51:12;;;;;;;1.30;1.17;;;;;;;;;;5013573;28;20033;-57
2022/07/11 14:53:38;;;;;;;1.92;1.20;;;;;;;;;;5012155;28;20169;-57